createdAt,value
2016-07-17T00:00:22.311Z,55.09
2016-07-17T00:01:17.274Z,55.09
2016-07-17T00:02:10.459Z,55.13
2016-07-17T00:03:19.166Z,55.12
2016-07-17T00:04:14.635Z,54.24
2016-07-17T00:05:18.823Z,54.09
2016-07-17T00:06:12.101Z,54.23
2016-07-17T00:07:14.709Z,53.94
2016-07-17T00:08:19.198Z,53.93
2016-07-17T00:09:24.187Z,54.79
2016-07-17T00:10:13.392Z,54.96
2016-07-17T00:11:12.433Z,55.04
2016-07-17T00:12:18.038Z,54.26
2016-07-17T00:13:11.695Z,54.12
2016-07-17T00:14:12.750Z,54.06
2016-07-17T00:15:11.023Z,54.05
2016-07-17T00:16:23.040Z,54.87
2016-07-17T00:17:19.300Z,55.02
2016-07-17T00:18:20.890Z,55.10
2016-07-17T00:19:19.873Z,55.18
2016-07-17T00:20:19.228Z,55.23
2016-07-17T00:21:11.204Z,55.23
2016-07-17T00:22:17.515Z,55.07
2016-07-17T00:23:16.218Z,54.37
2016-07-17T00:24:18.084Z,54.92
2016-07-17T00:25:20.931Z,54.30
2016-07-17T00:26:18.766Z,54.18
2016-07-17T00:27:14.012Z,54.08
2016-07-17T00:28:16.469Z,54.12
2016-07-17T00:29:12.306Z,54.09
2016-07-17T00:30:26.396Z,54.11
2016-07-17T00:31:15.628Z,54.10
2016-07-17T00:32:11.281Z,54.07
2016-07-17T00:33:14.241Z,54.09
2016-07-17T00:34:14.979Z,54.97
2016-07-17T00:35:16.090Z,55.12
2016-07-17T00:36:13.202Z,55.20
2016-07-17T00:37:22.027Z,55.25
2016-07-17T00:38:16.384Z,55.29
2016-07-17T00:39:19.590Z,55.31
2016-07-17T00:40:15.662Z,55.32
2016-07-17T00:41:13.666Z,55.25
2016-07-17T00:42:13.606Z,55.35
2016-07-17T00:43:13.678Z,55.34
2016-07-17T00:44:16.064Z,55.38
2016-07-17T00:45:11.312Z,55.36
2016-07-17T00:46:17.911Z,54.75
2016-07-17T00:47:13.477Z,55.22
2016-07-17T00:48:12.766Z,55.30
2016-07-17T00:49:18.560Z,55.33
2016-07-17T00:50:19.981Z,55.34
2016-07-17T00:51:13.915Z,55.38
2016-07-17T00:52:10.581Z,55.39
2016-07-17T00:53:17.897Z,55.36
2016-07-17T00:54:15.595Z,55.40
2016-07-17T00:55:13.830Z,55.40
2016-07-17T00:56:23.143Z,55.40
2016-07-17T00:57:15.648Z,55.46
2016-07-17T00:58:20.002Z,54.86
2016-07-17T00:59:12.417Z,55.27
2016-07-17T01:00:16.785Z,55.35
2016-07-17T01:01:12.666Z,55.49
2016-07-17T01:02:16.918Z,55.46
2016-07-17T01:03:14.101Z,55.51
2016-07-17T01:04:14.800Z,55.44
2016-07-17T01:05:14.524Z,55.46
2016-07-17T01:06:17.342Z,55.47
2016-07-17T01:07:15.750Z,55.48
2016-07-17T01:08:13.348Z,55.50
2016-07-17T01:09:14.139Z,55.52
2016-07-17T01:10:14.381Z,55.55
2016-07-17T01:11:16.056Z,55.53
2016-07-17T01:12:14.525Z,55.53
2016-07-17T01:13:14.315Z,55.60
2016-07-17T01:14:18.322Z,55.61
2016-07-17T01:15:22.588Z,55.62
2016-07-17T01:16:15.227Z,55.62
2016-07-17T01:17:13.995Z,55.63
2016-07-17T01:18:10.905Z,55.64
2016-07-17T01:19:21.949Z,55.63
2016-07-17T01:20:16.188Z,55.63
2016-07-17T01:21:13.267Z,55.65
2016-07-17T01:22:13.019Z,55.65
2016-07-17T01:23:13.036Z,55.66
2016-07-17T01:24:14.118Z,55.72
2016-07-17T01:25:12.423Z,55.69
2016-07-17T01:26:15.025Z,55.71
2016-07-17T01:27:11.304Z,55.74
2016-07-17T01:28:12.438Z,55.76
2016-07-17T01:29:16.554Z,55.02
2016-07-17T01:30:14.570Z,55.56
2016-07-17T01:31:13.826Z,55.66
2016-07-17T01:32:18.858Z,55.66
2016-07-17T01:33:14.206Z,55.71
2016-07-17T01:34:20.084Z,55.69
2016-07-17T01:35:13.381Z,55.74
2016-07-17T01:36:16.693Z,55.76
2016-07-17T01:37:12.506Z,55.77
2016-07-17T01:38:19.318Z,54.85
2016-07-17T01:39:12.509Z,54.72
2016-07-17T01:40:12.168Z,54.69
2016-07-17T01:41:21.900Z,54.64
2016-07-17T01:42:16.336Z,54.63
2016-07-17T01:43:15.492Z,55.47
2016-07-17T01:44:25.096Z,55.68
2016-07-17T01:45:14.466Z,55.76
2016-07-17T01:46:25.473Z,55.77
2016-07-17T01:47:15.902Z,55.80
2016-07-17T01:48:15.417Z,55.80
2016-07-17T01:49:14.422Z,55.85
2016-07-17T01:50:14.206Z,55.84
2016-07-17T01:51:12.351Z,55.89
2016-07-17T01:52:10.792Z,55.87
2016-07-17T01:53:14.426Z,55.88
2016-07-17T01:54:16.856Z,55.86
2016-07-17T01:55:31.691Z,55.86
2016-07-17T01:56:16.788Z,55.89
2016-07-17T01:57:16.504Z,55.97
2016-07-17T01:58:11.171Z,55.02
2016-07-17T01:59:14.612Z,54.85
2016-07-17T02:00:22.400Z,54.82
2016-07-17T02:01:13.014Z,54.95
2016-07-17T02:02:15.206Z,55.65
2016-07-17T02:03:12.479Z,55.80
2016-07-17T02:04:20.354Z,55.95
2016-07-17T02:05:14.337Z,55.22
2016-07-17T02:06:12.666Z,55.78
2016-07-17T02:07:21.192Z,55.76
2016-07-17T02:08:15.673Z,55.06
2016-07-17T02:09:20.652Z,55.79
2016-07-17T02:10:14.943Z,55.89
2016-07-17T02:11:14.224Z,55.84
2016-07-17T02:12:15.293Z,55.96
2016-07-17T02:13:15.229Z,56.02
2016-07-17T02:14:11.971Z,56.00
2016-07-17T02:15:13.113Z,55.11
2016-07-17T02:16:14.466Z,54.95
2016-07-17T02:17:12.192Z,54.92
2016-07-17T02:18:16.164Z,55.70
2016-07-17T02:19:12.389Z,55.84
2016-07-17T02:20:15.170Z,55.31
2016-07-17T02:21:14.245Z,55.76
2016-07-17T02:22:18.565Z,55.87
2016-07-17T02:23:20.170Z,55.97
2016-07-17T02:24:21.477Z,55.95
2016-07-17T02:25:17.781Z,55.11
2016-07-17T02:26:17.319Z,54.99
2016-07-17T02:27:17.069Z,54.94
2016-07-17T02:28:15.198Z,54.89
2016-07-17T02:29:15.926Z,54.89
2016-07-17T02:30:14.216Z,54.87
2016-07-17T02:31:16.226Z,54.89
2016-07-17T02:32:14.452Z,54.80
2016-07-17T02:33:15.894Z,54.95
2016-07-17T02:34:15.588Z,55.16
2016-07-17T02:35:12.497Z,54.95
2016-07-17T02:36:12.307Z,54.93
2016-07-17T02:37:16.784Z,54.95
2016-07-17T02:38:18.923Z,55.02
2016-07-17T02:39:16.934Z,55.01
2016-07-17T02:40:12.193Z,55.04
2016-07-17T02:41:16.992Z,54.98
2016-07-17T02:42:16.050Z,54.99
2016-07-17T02:43:16.311Z,54.99
2016-07-17T02:44:14.775Z,55.22
2016-07-17T02:45:14.237Z,56.06
2016-07-17T02:46:19.307Z,56.21
2016-07-17T02:47:14.921Z,56.32
2016-07-17T02:48:15.766Z,56.35
2016-07-17T02:49:19.040Z,56.38
2016-07-17T02:50:21.901Z,56.36
2016-07-17T02:51:18.023Z,56.49
2016-07-17T02:52:12.797Z,56.49
2016-07-17T02:53:14.845Z,56.52
2016-07-17T02:54:14.429Z,56.54
2016-07-17T02:55:16.319Z,56.54
2016-07-17T02:56:15.089Z,56.54
2016-07-17T02:57:20.615Z,56.57
2016-07-17T02:58:19.330Z,56.55
2016-07-17T02:59:19.314Z,56.38
2016-07-17T03:00:22.869Z,55.65
2016-07-17T03:01:14.223Z,55.46
2016-07-17T03:02:16.111Z,55.37
2016-07-17T03:03:13.157Z,55.43
2016-07-17T03:04:16.926Z,55.28
2016-07-17T03:05:14.120Z,55.28
2016-07-17T03:06:14.138Z,55.28
2016-07-17T03:07:16.676Z,55.23
2016-07-17T03:08:16.341Z,55.22
2016-07-17T03:09:13.993Z,55.26
2016-07-17T03:10:16.927Z,56.11
2016-07-17T03:11:19.144Z,56.26
2016-07-17T03:12:14.607Z,56.34
2016-07-17T03:13:17.511Z,56.37
2016-07-17T03:14:21.127Z,56.36
2016-07-17T03:15:13.964Z,56.40
2016-07-17T03:16:14.002Z,56.38
2016-07-17T03:17:15.730Z,56.40
2016-07-17T03:18:13.684Z,56.38
2016-07-17T03:19:17.169Z,56.41
2016-07-17T03:20:16.743Z,56.42
2016-07-17T03:21:13.712Z,56.41
2016-07-17T03:22:13.914Z,56.39
2016-07-17T03:23:16.883Z,56.41
2016-07-17T03:24:13.032Z,56.40
2016-07-17T03:25:16.334Z,55.50
2016-07-17T03:26:12.378Z,55.32
2016-07-17T03:27:17.773Z,55.25
2016-07-17T03:28:15.042Z,55.22
2016-07-17T03:29:13.792Z,55.18
2016-07-17T03:30:18.716Z,56.04
2016-07-17T03:31:14.084Z,56.20
2016-07-17T03:32:16.561Z,56.27
2016-07-17T03:33:16.808Z,56.31
2016-07-17T03:34:14.394Z,56.34
2016-07-17T03:35:15.282Z,56.34
2016-07-17T03:36:17.128Z,56.36
2016-07-17T03:37:12.901Z,56.32
2016-07-17T03:38:17.436Z,56.35
2016-07-17T03:39:14.386Z,56.38
2016-07-17T03:40:12.920Z,56.37
2016-07-17T03:41:22.313Z,56.32
2016-07-17T03:42:21.696Z,56.30
2016-07-17T03:43:19.733Z,56.28
2016-07-17T03:44:16.325Z,55.36
2016-07-17T03:45:12.874Z,55.17
2016-07-17T03:46:19.892Z,55.14
2016-07-17T03:47:13.948Z,55.30
2016-07-17T03:48:14.994Z,56.01
2016-07-17T03:49:11.346Z,56.17
2016-07-17T03:50:15.945Z,56.26
2016-07-17T03:51:11.055Z,56.30
2016-07-17T03:52:13.887Z,56.31
2016-07-17T03:53:20.863Z,56.34
2016-07-17T03:54:14.068Z,56.37
2016-07-17T03:55:14.247Z,56.35
2016-07-17T03:56:16.365Z,56.36
2016-07-17T03:57:14.398Z,56.39
2016-07-17T03:58:16.049Z,56.39
2016-07-17T03:59:14.331Z,56.39
2016-07-17T04:00:16.126Z,56.43
2016-07-17T04:01:12.026Z,56.47
2016-07-17T04:02:13.400Z,56.51
2016-07-17T04:03:15.140Z,56.53
2016-07-17T04:04:15.762Z,56.53
2016-07-17T04:05:16.630Z,56.53
2016-07-17T04:06:18.744Z,56.55
2016-07-17T04:07:13.861Z,56.55
2016-07-17T04:08:12.656Z,56.41
2016-07-17T04:09:23.647Z,55.72
2016-07-17T04:10:15.599Z,55.53
2016-07-17T04:11:20.709Z,55.73
2016-07-17T04:12:11.917Z,56.33
2016-07-17T04:13:11.779Z,56.50
2016-07-17T04:14:12.545Z,56.57
2016-07-17T04:15:22.802Z,55.69
2016-07-17T04:16:15.940Z,55.50
2016-07-17T04:17:12.808Z,55.50
2016-07-17T04:18:24.046Z,55.43
2016-07-17T04:19:19.987Z,55.43
2016-07-17T04:20:12.164Z,55.42
2016-07-17T04:21:15.396Z,55.42
2016-07-17T04:22:19.025Z,55.54
2016-07-17T04:23:14.160Z,55.81
2016-07-17T04:24:16.167Z,56.55
2016-07-17T04:25:16.522Z,56.78
2016-07-17T04:26:12.807Z,56.75
2016-07-17T04:27:22.479Z,56.86
2016-07-17T04:28:13.343Z,56.93
2016-07-17T04:29:17.144Z,56.94
2016-07-17T04:30:15.804Z,56.99
2016-07-17T04:31:12.703Z,56.95
2016-07-17T04:32:12.875Z,56.04
2016-07-17T04:33:12.870Z,56.83
2016-07-17T04:34:18.036Z,56.90
2016-07-17T04:35:21.886Z,56.88
2016-07-17T04:36:15.477Z,56.97
2016-07-17T04:37:14.692Z,56.98
2016-07-17T04:38:29.651Z,56.98
2016-07-17T04:39:30.990Z,57.04
2016-07-17T04:40:19.835Z,57.00
2016-07-17T04:41:21.585Z,56.94
2016-07-17T04:42:26.290Z,56.78
2016-07-17T04:43:21.574Z,57.03
2016-07-17T04:44:18.135Z,57.02
2016-07-17T04:45:31.856Z,57.05
2016-07-17T04:46:20.965Z,57.05
2016-07-17T04:47:20.852Z,57.29
2016-07-17T04:48:16.833Z,57.19
2016-07-17T04:49:16.011Z,57.17
2016-07-17T04:50:20.216Z,57.20
2016-07-17T04:51:22.271Z,57.08
2016-07-17T04:52:18.395Z,57.17
2016-07-17T04:53:19.008Z,57.12
2016-07-17T04:54:17.901Z,57.15
2016-07-17T04:55:15.387Z,57.16
2016-07-17T04:56:22.127Z,57.11
2016-07-17T04:57:22.724Z,57.11
2016-07-17T04:58:27.955Z,57.10
2016-07-17T04:59:16.697Z,57.11
2016-07-17T05:00:19.470Z,57.07
2016-07-17T05:01:17.851Z,57.07
2016-07-17T05:02:26.763Z,57.08
2016-07-17T05:03:20.118Z,57.06
2016-07-17T05:04:23.697Z,57.05
2016-07-17T05:05:34.159Z,57.09
2016-07-17T05:06:29.036Z,57.03
2016-07-17T05:07:21.874Z,57.02
2016-07-17T05:08:24.956Z,57.02
2016-07-17T05:09:27.318Z,57.02
2016-07-17T05:10:25.175Z,57.02
2016-07-17T05:11:38.594Z,56.99
2016-07-17T05:12:19.459Z,57.01
2016-07-17T05:13:22.638Z,56.97
2016-07-17T05:14:25.876Z,56.94
2016-07-17T05:15:27.884Z,56.95
2016-07-17T05:16:21.811Z,56.91
2016-07-17T05:17:26.967Z,56.90
2016-07-17T05:18:19.705Z,56.91
2016-07-17T05:19:22.168Z,56.88
2016-07-17T05:20:24.429Z,56.86
2016-07-17T05:21:17.781Z,56.82
2016-07-17T05:22:15.842Z,56.85
2016-07-17T05:23:15.133Z,56.84
2016-07-17T05:24:18.037Z,56.83
2016-07-17T05:25:18.631Z,55.91
2016-07-17T05:26:26.131Z,55.73
2016-07-17T05:27:20.179Z,55.67
2016-07-17T05:28:17.114Z,55.62
2016-07-17T05:29:29.760Z,55.58
2016-07-17T05:30:21.635Z,55.53
2016-07-17T05:31:20.219Z,55.46
2016-07-17T05:32:23.084Z,55.50
2016-07-17T05:33:18.277Z,55.52
2016-07-17T05:34:21.286Z,55.50
2016-07-17T05:35:20.750Z,55.48
2016-07-17T05:36:19.335Z,55.85
2016-07-17T05:37:36.126Z,56.39
2016-07-17T05:38:28.978Z,56.53
2016-07-17T05:39:21.524Z,56.60
2016-07-17T05:40:25.498Z,56.63
2016-07-17T05:41:21.508Z,56.66
2016-07-17T05:42:33.432Z,56.68
2016-07-17T05:43:33.376Z,56.69
2016-07-17T05:44:19.689Z,56.71
2016-07-17T05:45:20.973Z,56.71
2016-07-17T05:46:20.318Z,56.70
2016-07-17T05:47:32.037Z,56.75
2016-07-17T05:48:21.051Z,56.78
2016-07-17T05:49:26.942Z,56.78
2016-07-17T05:50:12.519Z,56.79
2016-07-17T05:51:22.362Z,56.78
2016-07-17T05:52:16.675Z,56.78
2016-07-17T05:53:17.076Z,56.79
2016-07-17T05:54:26.623Z,56.65
2016-07-17T05:55:35.436Z,55.90
2016-07-17T05:56:23.373Z,55.71
2016-07-17T05:57:20.426Z,55.57
2016-07-17T05:58:22.608Z,55.58
2016-07-17T05:59:27.616Z,55.66
2016-07-17T06:00:20.524Z,56.46
2016-07-17T06:01:24.013Z,56.61
2016-07-17T06:02:28.120Z,56.65
2016-07-17T06:03:27.029Z,56.69
2016-07-17T06:04:16.855Z,56.71
2016-07-17T06:05:24.043Z,56.72
2016-07-17T06:06:19.808Z,56.72
2016-07-17T06:07:23.249Z,56.74
2016-07-17T06:08:15.920Z,56.71
2016-07-17T06:09:32.283Z,56.72
2016-07-17T06:10:27.683Z,56.69
2016-07-17T06:11:17.532Z,56.67
2016-07-17T06:12:31.160Z,56.68
2016-07-17T06:13:17.753Z,56.68
2016-07-17T06:14:26.166Z,56.68
2016-07-17T06:15:20.234Z,56.70
2016-07-17T06:16:31.406Z,56.75
2016-07-17T06:17:30.070Z,56.77
2016-07-17T06:18:17.379Z,56.78
2016-07-17T06:19:20.151Z,56.79
2016-07-17T06:20:32.360Z,56.82
2016-07-17T06:21:17.402Z,56.83
2016-07-17T06:22:21.001Z,56.83
2016-07-17T06:23:16.391Z,56.82
2016-07-17T06:24:18.335Z,56.80
2016-07-17T06:25:22.858Z,56.78
2016-07-17T06:26:24.912Z,56.80
2016-07-17T06:27:14.377Z,56.83
2016-07-17T06:28:19.502Z,56.76
2016-07-17T06:29:24.218Z,56.77
2016-07-17T06:30:27.933Z,56.77
2016-07-17T06:31:21.510Z,56.80
2016-07-17T06:32:24.878Z,56.79
2016-07-17T06:33:21.073Z,56.77
2016-07-17T06:34:23.436Z,56.76
2016-07-17T06:35:26.934Z,56.79
2016-07-17T06:36:16.897Z,56.79
2016-07-17T06:37:17.724Z,56.77
2016-07-17T06:38:20.608Z,56.77
2016-07-17T06:39:27.475Z,56.79
2016-07-17T06:40:23.856Z,56.78
2016-07-17T06:41:28.249Z,56.77
2016-07-17T06:42:32.486Z,56.81
2016-07-17T06:43:16.959Z,56.81
2016-07-17T06:44:33.030Z,56.79
2016-07-17T06:45:17.269Z,55.89
2016-07-17T06:46:22.296Z,55.81
2016-07-17T06:47:24.760Z,55.54
2016-07-17T06:48:15.858Z,55.59
2016-07-17T06:49:17.504Z,55.81
2016-07-17T06:50:20.891Z,56.46
2016-07-17T06:51:20.487Z,56.62
2016-07-17T06:52:21.838Z,56.70
2016-07-17T06:53:16.307Z,56.65
2016-07-17T06:54:19.999Z,56.76
2016-07-17T06:55:27.995Z,56.75
2016-07-17T06:56:16.328Z,56.77
2016-07-17T06:57:26.780Z,56.18
2016-07-17T06:58:23.408Z,56.60
2016-07-17T06:59:22.903Z,56.70
2016-07-17T07:00:17.176Z,56.72
2016-07-17T07:01:19.538Z,56.75
2016-07-17T07:02:16.885Z,56.78
2016-07-17T07:03:31.944Z,56.78
2016-07-17T07:04:37.715Z,56.80
2016-07-17T07:05:16.278Z,56.83
2016-07-17T07:06:18.859Z,55.99
2016-07-17T07:07:30.744Z,56.80
2016-07-17T07:08:22.910Z,56.82
2016-07-17T07:09:24.006Z,56.80
2016-07-17T07:10:21.657Z,56.77
2016-07-17T07:11:20.431Z,56.78
2016-07-17T07:12:19.208Z,56.80
2016-07-17T07:13:24.116Z,56.86
2016-07-17T07:14:19.224Z,57.11
2016-07-17T07:15:16.329Z,56.94
2016-07-17T07:16:38.318Z,57.03
2016-07-17T07:17:21.703Z,57.02
2016-07-17T07:18:17.000Z,56.98
2016-07-17T07:19:16.358Z,56.99
2016-07-17T07:20:19.371Z,57.00
2016-07-17T07:21:21.062Z,57.00
2016-07-17T07:22:32.184Z,57.02
2016-07-17T07:23:24.002Z,57.02
2016-07-17T07:24:11.872Z,57.03
2016-07-17T07:25:20.430Z,57.02
2016-07-17T07:26:20.440Z,57.04
2016-07-17T07:27:18.177Z,57.05
2016-07-17T07:28:21.888Z,57.05
2016-07-17T07:29:16.898Z,57.04
2016-07-17T07:30:19.444Z,57.04
2016-07-17T07:31:23.650Z,57.03
2016-07-17T07:32:31.542Z,57.06
2016-07-17T07:33:14.754Z,57.07
2016-07-17T07:34:27.266Z,57.07
2016-07-17T07:35:26.657Z,57.06
2016-07-17T07:36:16.286Z,56.91
2016-07-17T07:37:27.260Z,56.15
2016-07-17T07:38:19.196Z,55.98
2016-07-17T07:39:19.204Z,56.04
2016-07-17T07:40:14.499Z,56.74
2016-07-17T07:41:22.266Z,56.89
2016-07-17T07:42:15.435Z,56.97
2016-07-17T07:43:15.547Z,57.04
2016-07-17T07:44:18.216Z,57.06
2016-07-17T07:45:22.524Z,57.06
2016-07-17T07:46:21.632Z,57.09
2016-07-17T07:47:22.947Z,57.08
2016-07-17T07:48:17.403Z,57.09
2016-07-17T07:49:14.157Z,56.94
2016-07-17T07:50:18.945Z,56.20
2016-07-17T07:51:15.386Z,55.99
2016-07-17T07:52:23.359Z,55.96
2016-07-17T07:53:20.329Z,56.21
2016-07-17T07:54:13.128Z,56.81
2016-07-17T07:55:15.357Z,57.06
2016-07-17T07:56:16.997Z,57.19
2016-07-17T07:57:15.666Z,57.26
2016-07-17T07:58:17.498Z,57.29
2016-07-17T07:59:13.514Z,57.37
2016-07-17T08:00:11.134Z,57.35
2016-07-17T08:01:12.923Z,57.31
2016-07-17T08:02:14.694Z,57.33
2016-07-17T08:03:17.009Z,57.40
2016-07-17T08:04:18.184Z,57.39
2016-07-17T08:05:19.143Z,57.35
2016-07-17T08:06:17.682Z,57.49
2016-07-17T08:07:16.848Z,57.60
2016-07-17T08:08:19.481Z,57.63
2016-07-17T08:09:14.001Z,57.48
2016-07-17T08:10:18.685Z,57.78
2016-07-17T08:11:15.051Z,57.83
2016-07-17T08:12:13.417Z,57.73
2016-07-17T08:13:14.168Z,58.40
2016-07-17T08:14:15.963Z,58.23
2016-07-17T08:15:15.537Z,58.39
2016-07-17T08:16:24.877Z,59.08
2016-07-17T08:17:15.095Z,59.05
2016-07-17T08:18:13.853Z,58.95
2016-07-17T08:19:16.049Z,59.28
2016-07-17T08:20:15.871Z,58.86
2016-07-17T08:21:16.635Z,58.85
2016-07-17T08:22:18.522Z,59.28
2016-07-17T08:23:14.535Z,59.64
2016-07-17T08:24:17.330Z,59.88
2016-07-17T08:25:15.215Z,59.71
2016-07-17T08:26:20.914Z,59.51
2016-07-17T08:27:14.641Z,59.49
2016-07-17T08:28:15.548Z,60.10
2016-07-17T08:29:15.647Z,60.00
2016-07-17T08:30:21.480Z,59.88
2016-07-17T08:31:15.919Z,59.86
2016-07-17T08:32:15.904Z,59.83
2016-07-17T08:33:26.128Z,59.90
2016-07-17T08:34:18.891Z,59.88
2016-07-17T08:35:20.023Z,59.84
2016-07-17T08:36:30.988Z,59.83
2016-07-17T08:37:22.262Z,59.82
2016-07-17T08:38:22.706Z,59.70
2016-07-17T08:39:33.295Z,59.73
2016-07-17T08:40:18.422Z,59.68
2016-07-17T08:41:18.931Z,59.69
2016-07-17T08:42:17.831Z,58.71
2016-07-17T08:43:23.562Z,58.48
2016-07-17T08:44:21.445Z,58.37
2016-07-17T08:45:21.351Z,59.23
2016-07-17T08:46:17.953Z,59.39
2016-07-17T08:47:29.838Z,59.44
2016-07-17T08:48:21.543Z,59.42
2016-07-17T08:49:19.111Z,59.41
2016-07-17T08:50:14.294Z,59.42
2016-07-17T08:51:20.356Z,59.40
2016-07-17T08:52:20.966Z,59.38
2016-07-17T08:53:19.540Z,59.37
2016-07-17T08:54:20.573Z,59.38
2016-07-17T08:55:24.780Z,59.34
2016-07-17T08:56:18.231Z,59.32
2016-07-17T08:57:23.266Z,59.28
2016-07-17T08:58:23.468Z,59.24
2016-07-17T08:59:28.902Z,59.23
2016-07-17T09:00:20.409Z,59.16
2016-07-17T09:01:18.983Z,59.12
2016-07-17T09:02:25.502Z,59.09
2016-07-17T09:03:17.564Z,59.03
2016-07-17T09:04:20.442Z,59.00
2016-07-17T09:05:17.898Z,58.98
2016-07-17T09:06:16.666Z,59.00
2016-07-17T09:07:23.635Z,58.00
2016-07-17T09:08:21.083Z,57.80
2016-07-17T09:09:27.646Z,57.74
2016-07-17T09:10:20.894Z,58.58
2016-07-17T09:11:20.285Z,58.90
2016-07-17T09:12:18.654Z,58.90
2016-07-17T09:13:18.810Z,58.71
2016-07-17T09:14:22.066Z,57.85
2016-07-17T09:15:27.688Z,57.70
2016-07-17T09:16:18.581Z,57.86
2016-07-17T09:17:39.489Z,58.77
2016-07-17T09:18:27.882Z,58.85
2016-07-17T09:19:28.843Z,58.85
2016-07-17T09:20:41.458Z,58.78
2016-07-17T09:21:31.258Z,58.88
2016-07-17T09:22:22.758Z,58.03
2016-07-17T09:23:20.067Z,57.61
2016-07-17T09:24:22.675Z,57.49
2016-07-17T09:25:20.599Z,58.86
2016-07-17T09:26:28.616Z,59.37
2016-07-17T09:27:20.815Z,59.15
2016-07-17T09:28:26.247Z,59.13
2016-07-17T09:29:21.841Z,58.94
2016-07-17T09:30:22.302Z,58.85
2016-07-17T09:31:16.311Z,58.78
2016-07-17T09:32:22.103Z,59.01
2016-07-17T09:33:21.880Z,59.03
2016-07-17T09:34:21.785Z,60.24
2016-07-17T09:35:21.281Z,60.55
2016-07-17T09:36:45.465Z,60.96
2016-07-17T09:37:37.172Z,61.13
2016-07-17T09:38:31.861Z,61.31
2016-07-17T09:39:26.227Z,61.81
2016-07-17T09:40:27.095Z,62.44
2016-07-17T09:41:25.012Z,61.13
2016-07-17T09:42:30.021Z,61.40
2016-07-17T09:43:22.350Z,61.29
2016-07-17T09:44:33.976Z,61.64
2016-07-17T09:45:21.458Z,61.70
2016-07-17T09:46:22.427Z,61.83
2016-07-17T09:47:22.255Z,62.37
2016-07-17T09:48:33.921Z,62.34
2016-07-17T09:49:33.468Z,61.49
2016-07-17T09:50:26.001Z,61.14
2016-07-17T09:51:27.528Z,61.17
2016-07-17T09:52:22.122Z,61.59
2016-07-17T09:53:20.595Z,61.26
2016-07-17T09:54:23.990Z,61.17
2016-07-17T09:55:16.564Z,61.17
2016-07-17T09:56:23.482Z,61.41
2016-07-17T09:57:22.673Z,61.47
2016-07-17T09:58:28.199Z,61.31
2016-07-17T09:59:33.904Z,61.45
2016-07-17T10:00:49.999Z,61.46
2016-07-17T10:01:29.562Z,62.81
2016-07-17T10:02:33.963Z,61.57
2016-07-17T10:03:40.877Z,61.68
2016-07-17T10:04:35.831Z,61.87
2016-07-17T10:05:30.432Z,61.61
2016-07-17T10:09:02.288Z,53.20
2016-07-17T10:09:31.979Z,53.40
2016-07-17T10:09:59.709Z,53.30
2016-07-17T10:10:57.981Z,54.33
2016-07-17T10:11:45.833Z,55.56
2016-07-17T10:12:45.138Z,56.37
2016-07-17T10:13:50.060Z,56.93
2016-07-17T10:14:45.642Z,57.53
2016-07-17T10:15:45.670Z,57.96
2016-07-17T10:16:49.470Z,58.04
2016-07-17T10:17:39.454Z,58.40
2016-07-17T10:18:39.306Z,58.70
2016-07-17T10:19:52.648Z,58.80
2016-07-17T10:20:49.881Z,58.93
2016-07-17T10:21:45.691Z,59.00
2016-07-17T10:22:36.677Z,59.12
2016-07-17T10:24:03.871Z,59.12
2016-07-17T10:24:44.896Z,59.02
2016-07-17T10:25:46.058Z,59.23
2016-07-17T10:26:58.007Z,59.23
2016-07-17T10:27:45.117Z,59.25
2016-07-17T10:28:44.699Z,59.28
2016-07-17T10:30:50.198Z,59.20
2016-07-17T10:31:46.516Z,59.27
2016-07-17T10:32:49.869Z,59.27
2016-07-17T10:33:48.352Z,59.32
2016-07-17T10:34:27.340Z,59.23
2016-07-17T10:35:26.159Z,59.25
2016-07-17T10:36:31.988Z,59.19
2016-07-17T10:37:37.459Z,59.21
2016-07-17T10:38:40.530Z,59.09
2016-07-17T10:39:43.442Z,59.38
2016-07-17T10:40:43.936Z,59.13
2016-07-17T10:41:37.069Z,59.08
2016-07-17T10:42:27.828Z,58.98
2016-07-17T10:43:42.449Z,59.47
2016-07-17T10:44:29.684Z,59.11
2016-07-17T10:45:45.893Z,59.44
2016-07-17T10:46:38.263Z,59.13
2016-07-17T10:47:38.835Z,59.18
2016-07-17T10:48:30.128Z,59.45
2016-07-17T10:49:33.050Z,59.45
2016-07-17T10:50:43.727Z,59.47
2016-07-17T10:51:52.663Z,59.58
2016-07-17T10:52:43.851Z,59.53
2016-07-17T10:53:45.220Z,59.64
2016-07-17T10:54:31.931Z,59.55
2016-07-17T10:55:38.035Z,59.53
2016-07-17T10:56:46.976Z,59.51
2016-07-17T10:57:41.216Z,59.55
2016-07-17T10:58:34.465Z,59.49
2016-07-17T10:59:32.933Z,59.51
2016-07-17T11:00:51.771Z,59.49
2016-07-17T11:01:53.801Z,59.50
2016-07-17T11:02:46.045Z,59.50
2016-07-17T11:03:38.211Z,59.48
2016-07-17T11:04:39.460Z,59.50
2016-07-17T11:05:39.667Z,59.45
2016-07-17T11:06:39.778Z,59.40
2016-07-17T11:07:49.046Z,59.39
2016-07-17T11:08:48.617Z,59.35
2016-07-17T11:09:47.481Z,59.30
2016-07-17T11:10:46.109Z,59.29
2016-07-17T11:11:49.148Z,59.30
2016-07-17T11:12:42.278Z,59.26
2016-07-17T11:13:38.570Z,59.28
2016-07-17T11:14:55.720Z,59.30
2016-07-17T11:15:34.715Z,59.33
2016-07-17T11:16:44.449Z,59.32
2016-07-17T11:17:39.288Z,59.18
2016-07-17T11:18:47.611Z,59.04
2016-07-17T11:19:49.960Z,59.13
2016-07-17T11:20:44.902Z,59.18
2016-07-17T11:21:39.981Z,58.83
2016-07-17T11:22:31.267Z,59.12
2016-07-17T11:23:28.934Z,59.20
2016-07-17T11:24:37.330Z,59.20
2016-07-17T11:25:38.119Z,59.23
2016-07-17T11:26:45.434Z,59.39
2016-07-17T11:27:28.356Z,59.49
2016-07-17T11:28:41.622Z,59.52
2016-07-17T11:29:49.627Z,59.50
2016-07-17T11:30:44.913Z,59.53
2016-07-17T11:31:44.164Z,59.53
2016-07-17T11:32:51.469Z,59.54
2016-07-17T11:33:46.709Z,59.56
2016-07-17T11:34:42.982Z,59.59
2016-07-17T11:35:39.514Z,59.60
2016-07-17T11:36:37.721Z,59.56
2016-07-17T11:37:43.371Z,59.53
2016-07-17T11:38:40.893Z,59.56
2016-07-17T11:39:39.884Z,59.55
2016-07-17T11:40:41.045Z,59.47
2016-07-17T11:41:44.138Z,59.49
2016-07-17T11:42:46.302Z,59.48
2016-07-17T11:43:27.885Z,59.41
2016-07-17T11:44:42.583Z,59.43
2016-07-17T11:45:36.701Z,59.42
2016-07-17T11:46:39.547Z,59.42
2016-07-17T11:47:16.923Z,59.39
2016-07-17T11:48:38.462Z,59.35
2016-07-17T11:49:41.414Z,59.32
2016-07-17T11:50:38.422Z,59.37
2016-07-17T11:51:38.479Z,59.37
2016-07-17T11:52:42.152Z,59.38
2016-07-17T11:53:34.143Z,59.37
2016-07-17T11:54:45.677Z,59.35
2016-07-17T11:55:38.795Z,59.32
2016-07-17T11:56:33.434Z,59.38
2016-07-17T11:57:43.558Z,59.37
2016-07-17T11:58:41.822Z,59.36
2016-07-17T11:59:37.592Z,59.38
2016-07-17T12:00:48.735Z,59.40
2016-07-17T12:01:39.528Z,59.39
2016-07-17T12:02:35.987Z,59.41
2016-07-17T12:03:39.513Z,59.41
2016-07-17T12:04:44.461Z,59.41
2016-07-17T12:05:38.595Z,59.44
2016-07-17T12:06:36.987Z,59.49
2016-07-17T12:07:27.738Z,59.45
2016-07-17T12:08:43.019Z,59.49
2016-07-17T12:09:44.040Z,59.53
2016-07-17T12:10:42.522Z,59.53
2016-07-17T12:11:38.112Z,59.55
2016-07-17T12:12:49.043Z,59.55
2016-07-17T12:13:29.711Z,59.59
2016-07-17T12:14:35.521Z,59.60
2016-07-17T12:15:50.010Z,59.61
2016-07-17T12:16:25.022Z,59.62
2016-07-17T12:17:49.545Z,59.61
2016-07-17T12:18:38.143Z,59.60
2016-07-17T12:19:27.427Z,59.59
2016-07-17T12:20:31.652Z,59.60
2016-07-17T12:21:39.167Z,59.61
2016-07-17T12:22:42.618Z,59.62
2016-07-17T12:23:39.128Z,59.67
2016-07-17T12:24:48.020Z,59.65
2016-07-17T12:25:42.877Z,59.67
2016-07-17T12:26:40.879Z,59.68
2016-07-17T12:27:44.953Z,59.67
2016-07-17T12:28:42.621Z,59.65
2016-07-17T12:29:27.178Z,59.67
2016-07-17T12:30:29.119Z,59.67
2016-07-17T12:31:37.682Z,59.65
2016-07-17T12:32:38.133Z,59.67
2016-07-17T12:33:35.366Z,59.65
2016-07-17T12:34:45.291Z,59.68
2016-07-17T12:35:50.514Z,59.90
2016-07-17T12:36:48.625Z,59.83
2016-07-17T12:37:45.371Z,59.71
2016-07-17T12:38:45.705Z,59.70
2016-07-17T12:39:44.442Z,59.65
2016-07-17T12:40:54.042Z,59.64
2016-07-17T12:41:49.005Z,59.69
2016-07-17T12:42:35.970Z,59.72
2016-07-17T12:43:43.916Z,59.87
2016-07-17T12:44:37.720Z,59.88
2016-07-17T12:45:39.160Z,59.84
2016-07-17T12:46:49.380Z,59.91
2016-07-17T12:47:38.734Z,59.95
2016-07-17T12:48:50.455Z,59.93
2016-07-17T12:49:57.932Z,59.94
2016-07-17T12:50:43.738Z,59.95
2016-07-17T12:51:36.965Z,59.97
2016-07-17T12:53:05.438Z,59.97
2016-07-17T12:53:37.759Z,59.97
2016-07-17T12:54:47.844Z,60.02